Terminal Aerodrome Forecast
Issued by NWS Charleston, SC

Home | Current Version | Previous Version | Text Only | Print | Product List | Glossary On
Versions: 1 2 3 4 5 6 7 8 9 10 11 12 13
918
FTUS42 KCHS 252320
TAFCHS
TAF
KCHS 252320Z 2600/2624 01005KT P6SM FEW030 SCT040 BKN250
     FM261000 35007KT P6SM SCT009 BKN020
      TEMPO 2611/2615 6SM BR BKN009 BKN015
     FM261530 34009KT P6SM SCT025
     FM262300 34005KT P6SM SCT045=

USA.gov is the U.S. government's official web portal to all federal, state and local government web resources and services.